sensor_id;sensor_type;location;lat;lon;timestamp;P1;durP1;ratioP1;P2;durP2;ratioP2
6017;SDS011;3037;51.068;13.780;2023-01-29T00:01:24;8.80;;;6.57;;
6017;SDS011;3037;51.068;13.780;2023-01-29T00:03:50;9.03;;;6.60;;
6017;SDS011;3037;51.068;13.780;2023-01-29T00:06:16;10.43;;;6.23;;
6017;SDS011;3037;51.068;13.780;2023-01-29T00:08:42;7.47;;;6.60;;
6017;SDS011;3037;51.068;13.780;2023-01-29T00:11:08;9.00;;;5.83;;
6017;SDS011;3037;51.068;13.780;2023-01-29T00:13:33;9.83;;;7.57;;
6017;SDS011;3037;51.068;13.780;2023-01-29T00:15:59;12.30;;;6.63;;
6017;SDS011;3037;51.068;13.780;2023-01-29T00:18:25;8.90;;;6.17;;
6017;SDS011;3037;51.068;13.780;2023-01-29T00:20:52;9.03;;;5.73;;
6017;SDS011;3037;51.068;13.780;2023-01-29T00:23:18;8.27;;;5.93;;
6017;SDS011;3037;51.068;13.780;2023-01-29T00:25:44;6.40;;;5.03;;
6017;SDS011;3037;51.068;13.780;2023-01-29T00:28:10;5.70;;;5.13;;
6017;SDS011;3037;51.068;13.780;2023-01-29T00:30:36;9.93;;;5.50;;
6017;SDS011;3037;51.068;13.780;2023-01-29T00:33:02;7.53;;;5.90;;
6017;SDS011;3037;51.068;13.780;2023-01-29T00:35:28;7.17;;;6.47;;
6017;SDS011;3037;51.068;13.780;2023-01-29T00:37:54;7.83;;;5.70;;
6017;SDS011;3037;51.068;13.780;2023-01-29T00:40:20;9.07;;;6.07;;
6017;SDS011;3037;51.068;13.780;2023-01-29T00:42:47;7.60;;;5.83;;
6017;SDS011;3037;51.068;13.780;2023-01-29T00:45:31;9.70;;;5.40;;
6017;SDS011;3037;51.068;13.780;2023-01-29T00:47:57;7.40;;;5.63;;
6017;SDS011;3037;51.068;13.780;2023-01-29T00:50:23;9.50;;;6.33;;
6017;SDS011;3037;51.068;13.780;2023-01-29T00:52:49;14.53;;;6.20;;
6017;SDS011;3037;51.068;13.780;2023-01-29T00:55:15;9.37;;;6.80;;
6017;SDS011;3037;51.068;13.780;2023-01-29T00:57:41;15.63;;;6.10;;
6017;SDS011;3037;51.068;13.780;2023-01-29T01:00:08;7.83;;;6.37;;
6017;SDS011;3037;51.068;13.780;2023-01-29T01:02:36;6.53;;;5.80;;
6017;SDS011;3037;51.068;13.780;2023-01-29T01:05:20;7.93;;;6.13;;
6017;SDS011;3037;51.068;13.780;2023-01-29T01:07:46;12.17;;;6.80;;
6017;SDS011;3037;51.068;13.780;2023-01-29T01:10:16;6.97;;;6.17;;
6017;SDS011;3037;51.068;13.780;2023-01-29T01:12:54;6.70;;;5.97;;
6017;SDS011;3037;51.068;13.780;2023-01-29T01:15:32;6.97;;;6.20;;
6017;SDS011;3037;51.068;13.780;2023-01-29T01:17:59;16.27;;;6.60;;
6017;SDS011;3037;51.068;13.780;2023-01-29T01:20:27;10.77;;;6.53;;
6017;SDS011;3037;51.068;13.780;2023-01-29T01:22:54;12.00;;;7.43;;
6017;SDS011;3037;51.068;13.780;2023-01-29T01:25:20;10.07;;;7.10;;
6017;SDS011;3037;51.068;13.780;2023-01-29T01:27:47;11.80;;;8.17;;
6017;SDS011;3037;51.068;13.780;2023-01-29T01:30:15;10.97;;;7.83;;
6017;SDS011;3037;51.068;13.780;2023-01-29T01:32:41;9.63;;;6.53;;
6017;SDS011;3037;51.068;13.780;2023-01-29T01:35:07;9.87;;;7.43;;
6017;SDS011;3037;51.068;13.780;2023-01-29T01:37:34;10.63;;;7.03;;
6017;SDS011;3037;51.068;13.780;2023-01-29T01:40:04;11.60;;;8.10;;
6017;SDS011;3037;51.068;13.780;2023-01-29T01:42:37;7.70;;;6.63;;
6017;SDS011;3037;51.068;13.780;2023-01-29T01:45:04;9.13;;;7.30;;
6017;SDS011;3037;51.068;13.780;2023-01-29T01:50:03;9.90;;;7.00;;
6017;SDS011;3037;51.068;13.780;2023-01-29T01:52:33;8.40;;;6.57;;
6017;SDS011;3037;51.068;13.780;2023-01-29T01:55:04;11.03;;;7.87;;
6017;SDS011;3037;51.068;13.780;2023-01-29T01:57:31;10.37;;;7.17;;
6017;SDS011;3037;51.068;13.780;2023-01-29T01:59:58;9.13;;;7.30;;
6017;SDS011;3037;51.068;13.780;2023-01-29T02:02:36;7.70;;;6.80;;
6017;SDS011;3037;51.068;13.780;2023-01-29T02:05:22;9.73;;;7.97;;
6017;SDS011;3037;51.068;13.780;2023-01-29T02:08:06;8.13;;;7.30;;
6017;SDS011;3037;51.068;13.780;2023-01-29T02:10:51;10.17;;;7.80;;
6017;SDS011;3037;51.068;13.780;2023-01-29T02:13:17;12.20;;;8.60;;
6017;SDS011;3037;51.068;13.780;2023-01-29T02:15:44;11.30;;;9.53;;
6017;SDS011;3037;51.068;13.780;2023-01-29T02:18:13;10.57;;;8.87;;
6017;SDS011;3037;51.068;13.780;2023-01-29T02:20:43;11.90;;;8.77;;
6017;SDS011;3037;51.068;13.780;2023-01-29T02:26:33;10.87;;;9.30;;
6017;SDS011;3037;51.068;13.780;2023-01-29T02:29:12;11.23;;;9.17;;
6017;SDS011;3037;51.068;13.780;2023-01-29T02:40:44;13.17;;;9.53;;
6017;SDS011;3037;51.068;13.780;2023-01-29T02:43:41;17.87;;;10.10;;
6017;SDS011;3037;51.068;13.780;2023-01-29T02:49:09;11.13;;;9.90;;
6017;SDS011;3037;51.068;13.780;2023-01-29T02:51:52;11.90;;;8.90;;
6017;SDS011;3037;51.068;13.780;2023-01-29T02:54:38;16.40;;;9.70;;
6017;SDS011;3037;51.068;13.780;2023-01-29T02:57:25;12.37;;;9.23;;
6017;SDS011;3037;51.068;13.780;2023-01-29T02:59:57;13.93;;;9.03;;
6017;SDS011;3037;51.068;13.780;2023-01-29T03:02:29;13.93;;;10.00;;
6017;SDS011;3037;51.068;13.780;2023-01-29T03:05:00;12.03;;;9.70;;
6017;SDS011;3037;51.068;13.780;2023-01-29T03:07:36;16.10;;;10.13;;
6017;SDS011;3037;51.068;13.780;2023-01-29T03:10:14;13.63;;;9.57;;
6017;SDS011;3037;51.068;13.780;2023-01-29T03:12:46;11.27;;;10.07;;
6017;SDS011;3037;51.068;13.780;2023-01-29T03:15:21;16.10;;;10.30;;
6017;SDS011;3037;51.068;13.780;2023-01-29T03:18:36;14.20;;;10.37;;
6017;SDS011;3037;51.068;13.780;2023-01-29T03:20:46;13.17;;;10.10;;
6017;SDS011;3037;51.068;13.780;2023-01-29T03:23:22;18.50;;;10.90;;
6017;SDS011;3037;51.068;13.780;2023-01-29T03:26:01;13.90;;;10.20;;
6017;SDS011;3037;51.068;13.780;2023-01-29T03:28:47;14.40;;;10.53;;
6017;SDS011;3037;51.068;13.780;2023-01-29T03:31:33;13.10;;;10.70;;
6017;SDS011;3037;51.068;13.780;2023-01-29T03:34:21;14.43;;;10.80;;
6017;SDS011;3037;51.068;13.780;2023-01-29T03:36:53;18.53;;;10.87;;
6017;SDS011;3037;51.068;13.780;2023-01-29T03:39:23;23.50;;;10.20;;
6017;SDS011;3037;51.068;13.780;2023-01-29T03:42:04;16.50;;;11.03;;
6017;SDS011;3037;51.068;13.780;2023-01-29T03:45:05;19.77;;;10.90;;
6017;SDS011;3037;51.068;13.780;2023-01-29T03:47:42;12.77;;;10.33;;
6017;SDS011;3037;51.068;13.780;2023-01-29T03:50:19;15.60;;;10.00;;
6017;SDS011;3037;51.068;13.780;2023-01-29T03:53:00;14.83;;;11.30;;
6017;SDS011;3037;51.068;13.780;2023-01-29T03:58:39;17.07;;;9.00;;
6017;SDS011;3037;51.068;13.780;2023-01-29T04:01:16;13.20;;;9.00;;
6017;SDS011;3037;51.068;13.780;2023-01-29T04:06:20;12.50;;;9.20;;
6017;SDS011;3037;51.068;13.780;2023-01-29T04:09:02;11.43;;;9.50;;
6017;SDS011;3037;51.068;13.780;2023-01-29T04:11:37;10.77;;;9.17;;
6017;SDS011;3037;51.068;13.780;2023-01-29T04:14:07;11.93;;;9.07;;
6017;SDS011;3037;51.068;13.780;2023-01-29T04:16:37;14.00;;;9.20;;
6017;SDS011;3037;51.068;13.780;2023-01-29T04:19:06;13.53;;;10.07;;
6017;SDS011;3037;51.068;13.780;2023-01-29T04:21:32;12.90;;;9.07;;
6017;SDS011;3037;51.068;13.780;2023-01-29T04:24:01;12.97;;;10.20;;
6017;SDS011;3037;51.068;13.780;2023-01-29T04:26:41;19.47;;;9.23;;
6017;SDS011;3037;51.068;13.780;2023-01-29T04:29:42;10.87;;;8.73;;
6017;SDS011;3037;51.068;13.780;2023-01-29T04:32:27;11.20;;;9.97;;
6017;SDS011;3037;51.068;13.780;2023-01-29T04:35:16;12.07;;;10.13;;
6017;SDS011;3037;51.068;13.780;2023-01-29T04:37:55;13.00;;;10.80;;
6017;SDS011;3037;51.068;13.780;2023-01-29T04:40:50;14.53;;;9.63;;
6017;SDS011;3037;51.068;13.780;2023-01-29T04:43:26;11.60;;;9.40;;
6017;SDS011;3037;51.068;13.780;2023-01-29T04:46:09;11.23;;;9.53;;
6017;SDS011;3037;51.068;13.780;2023-01-29T04:51:34;13.83;;;10.50;;
6017;SDS011;3037;51.068;13.780;2023-01-29T04:54:08;14.23;;;9.93;;
6017;SDS011;3037;51.068;13.780;2023-01-29T04:56:55;16.20;;;10.50;;
6017;SDS011;3037;51.068;13.780;2023-01-29T05:00:06;14.00;;;9.70;;
6017;SDS011;3037;51.068;13.780;2023-01-29T05:02:37;14.30;;;10.77;;
6017;SDS011;3037;51.068;13.780;2023-01-29T05:05:05;14.80;;;10.47;;
6017;SDS011;3037;51.068;13.780;2023-01-29T05:07:33;12.07;;;9.33;;
6017;SDS011;3037;51.068;13.780;2023-01-29T05:10:02;13.40;;;10.67;;
6017;SDS011;3037;51.068;13.780;2023-01-29T05:12:32;10.97;;;9.83;;
6017;SDS011;3037;51.068;13.780;2023-01-29T05:15:01;12.37;;;9.63;;
6017;SDS011;3037;51.068;13.780;2023-01-29T05:17:29;14.30;;;11.00;;
6017;SDS011;3037;51.068;13.780;2023-01-29T05:19:55;12.53;;;10.80;;
6017;SDS011;3037;51.068;13.780;2023-01-29T05:22:21;14.87;;;10.83;;
6017;SDS011;3037;51.068;13.780;2023-01-29T05:24:47;14.40;;;10.70;;
6017;SDS011;3037;51.068;13.780;2023-01-29T05:27:16;13.60;;;10.63;;
6017;SDS011;3037;51.068;13.780;2023-01-29T05:30:02;12.87;;;9.90;;
6017;SDS011;3037;51.068;13.780;2023-01-29T05:32:28;12.83;;;10.57;;
6017;SDS011;3037;51.068;13.780;2023-01-29T05:34:54;17.43;;;10.33;;
6017;SDS011;3037;51.068;13.780;2023-01-29T05:37:20;16.10;;;10.70;;
6017;SDS011;3037;51.068;13.780;2023-01-29T05:39:45;13.90;;;9.70;;
6017;SDS011;3037;51.068;13.780;2023-01-29T05:42:11;19.07;;;9.63;;
6017;SDS011;3037;51.068;13.780;2023-01-29T05:44:36;13.70;;;9.80;;
6017;SDS011;3037;51.068;13.780;2023-01-29T05:47:02;13.60;;;10.03;;
6017;SDS011;3037;51.068;13.780;2023-01-29T05:49:27;17.10;;;10.80;;
6017;SDS011;3037;51.068;13.780;2023-01-29T05:51:53;15.23;;;10.47;;
6017;SDS011;3037;51.068;13.780;2023-01-29T05:54:18;15.63;;;10.40;;
6017;SDS011;3037;51.068;13.780;2023-01-29T05:56:44;16.40;;;10.87;;
6017;SDS011;3037;51.068;13.780;2023-01-29T05:59:09;12.33;;;10.33;;
6017;SDS011;3037;51.068;13.780;2023-01-29T06:01:35;13.80;;;10.40;;
6017;SDS011;3037;51.068;13.780;2023-01-29T06:04:00;11.43;;;10.10;;
6017;SDS011;3037;51.068;13.780;2023-01-29T06:06:26;12.70;;;10.03;;
6017;SDS011;3037;51.068;13.780;2023-01-29T06:08:52;15.30;;;10.70;;
6017;SDS011;3037;51.068;13.780;2023-01-29T06:11:17;13.03;;;10.30;;
6017;SDS011;3037;51.068;13.780;2023-01-29T06:13:43;13.10;;;10.50;;
6017;SDS011;3037;51.068;13.780;2023-01-29T06:16:10;12.60;;;9.30;;
6017;SDS011;3037;51.068;13.780;2023-01-29T06:18:36;12.73;;;10.40;;
6017;SDS011;3037;51.068;13.780;2023-01-29T06:21:03;16.03;;;10.30;;
6017;SDS011;3037;51.068;13.780;2023-01-29T06:23:29;17.63;;;9.80;;
6017;SDS011;3037;51.068;13.780;2023-01-29T06:25:59;14.93;;;11.07;;
6017;SDS011;3037;51.068;13.780;2023-01-29T06:28:25;17.27;;;11.50;;
6017;SDS011;3037;51.068;13.780;2023-01-29T06:30:51;19.00;;;10.47;;
6017;SDS011;3037;51.068;13.780;2023-01-29T06:33:16;17.97;;;10.97;;
6017;SDS011;3037;51.068;13.780;2023-01-29T06:35:42;15.20;;;9.90;;
6017;SDS011;3037;51.068;13.780;2023-01-29T06:38:07;17.70;;;10.60;;
6017;SDS011;3037;51.068;13.780;2023-01-29T06:40:33;11.23;;;9.83;;
6017;SDS011;3037;51.068;13.780;2023-01-29T06:42:59;15.17;;;10.53;;
6017;SDS011;3037;51.068;13.780;2023-01-29T06:45:25;12.60;;;10.20;;
6017;SDS011;3037;51.068;13.780;2023-01-29T06:47:50;12.50;;;10.10;;
6017;SDS011;3037;51.068;13.780;2023-01-29T06:50:16;13.30;;;10.43;;
6017;SDS011;3037;51.068;13.780;2023-01-29T06:52:42;15.40;;;8.87;;
6017;SDS011;3037;51.068;13.780;2023-01-29T06:55:08;12.93;;;9.40;;
6017;SDS011;3037;51.068;13.780;2023-01-29T06:57:33;11.40;;;8.93;;
6017;SDS011;3037;51.068;13.780;2023-01-29T06:59:59;12.03;;;10.50;;
6017;SDS011;3037;51.068;13.780;2023-01-29T07:02:24;14.00;;;10.20;;
6017;SDS011;3037;51.068;13.780;2023-01-29T07:04:50;15.20;;;10.70;;
6017;SDS011;3037;51.068;13.780;2023-01-29T07:07:15;15.23;;;10.60;;
6017;SDS011;3037;51.068;13.780;2023-01-29T07:09:41;10.10;;;9.10;;
6017;SDS011;3037;51.068;13.780;2023-01-29T07:12:08;12.03;;;8.63;;
6017;SDS011;3037;51.068;13.780;2023-01-29T07:14:34;12.47;;;9.13;;
6017;SDS011;3037;51.068;13.780;2023-01-29T07:16:59;10.43;;;8.63;;
6017;SDS011;3037;51.068;13.780;2023-01-29T07:19:25;13.27;;;10.50;;
6017;SDS011;3037;51.068;13.780;2023-01-29T07:21:50;15.17;;;10.57;;
6017;SDS011;3037;51.068;13.780;2023-01-29T07:24:16;11.20;;;9.57;;
6017;SDS011;3037;51.068;13.780;2023-01-29T07:26:42;24.43;;;9.30;;
6017;SDS011;3037;51.068;13.780;2023-01-29T07:29:08;14.00;;;9.87;;
6017;SDS011;3037;51.068;13.780;2023-01-29T07:31:33;11.60;;;9.80;;
6017;SDS011;3037;51.068;13.780;2023-01-29T07:33:59;12.50;;;9.80;;
6017;SDS011;3037;51.068;13.780;2023-01-29T07:36:24;18.13;;;10.63;;
6017;SDS011;3037;51.068;13.780;2023-01-29T07:38:51;13.03;;;11.30;;
6017;SDS011;3037;51.068;13.780;2023-01-29T07:41:16;12.97;;;9.67;;
6017;SDS011;3037;51.068;13.780;2023-01-29T07:43:42;10.73;;;9.53;;
6017;SDS011;3037;51.068;13.780;2023-01-29T07:46:08;19.53;;;10.23;;
6017;SDS011;3037;51.068;13.780;2023-01-29T07:48:33;13.23;;;9.90;;
6017;SDS011;3037;51.068;13.780;2023-01-29T07:50:59;11.60;;;8.70;;
6017;SDS011;3037;51.068;13.780;2023-01-29T07:53:25;9.37;;;8.37;;
6017;SDS011;3037;51.068;13.780;2023-01-29T07:55:51;12.07;;;10.83;;
6017;SDS011;3037;51.068;13.780;2023-01-29T07:58:17;16.00;;;10.10;;
6017;SDS011;3037;51.068;13.780;2023-01-29T08:00:42;10.27;;;8.77;;
6017;SDS011;3037;51.068;13.780;2023-01-29T08:03:09;11.67;;;9.57;;
6017;SDS011;3037;51.068;13.780;2023-01-29T08:05:37;11.97;;;9.27;;
6017;SDS011;3037;51.068;13.780;2023-01-29T08:08:03;9.40;;;8.40;;
6017;SDS011;3037;51.068;13.780;2023-01-29T08:10:28;9.93;;;8.90;;
6017;SDS011;3037;51.068;13.780;2023-01-29T08:12:55;10.60;;;8.77;;
6017;SDS011;3037;51.068;13.780;2023-01-29T08:15:24;9.87;;;8.90;;
6017;SDS011;3037;51.068;13.780;2023-01-29T08:17:50;10.60;;;8.30;;
6017;SDS011;3037;51.068;13.780;2023-01-29T08:20:16;10.67;;;8.67;;
6017;SDS011;3037;51.068;13.780;2023-01-29T08:22:42;13.73;;;9.77;;
6017;SDS011;3037;51.068;13.780;2023-01-29T08:25:07;15.50;;;8.60;;
6017;SDS011;3037;51.068;13.780;2023-01-29T08:27:33;12.30;;;8.80;;
6017;SDS011;3037;51.068;13.780;2023-01-29T08:29:59;11.37;;;9.50;;
6017;SDS011;3037;51.068;13.780;2023-01-29T08:32:24;10.30;;;9.23;;
6017;SDS011;3037;51.068;13.780;2023-01-29T08:34:50;11.23;;;7.77;;
6017;SDS011;3037;51.068;13.780;2023-01-29T08:37:15;12.40;;;9.10;;
6017;SDS011;3037;51.068;13.780;2023-01-29T08:39:41;13.53;;;9.43;;
6017;SDS011;3037;51.068;13.780;2023-01-29T08:42:09;12.50;;;9.60;;
6017;SDS011;3037;51.068;13.780;2023-01-29T08:44:35;12.60;;;8.20;;
6017;SDS011;3037;51.068;13.780;2023-01-29T08:47:00;12.77;;;8.50;;
6017;SDS011;3037;51.068;13.780;2023-01-29T08:49:26;13.13;;;8.77;;
6017;SDS011;3037;51.068;13.780;2023-01-29T08:51:51;9.30;;;8.23;;
6017;SDS011;3037;51.068;13.780;2023-01-29T08:54:20;13.53;;;9.20;;
6017;SDS011;3037;51.068;13.780;2023-01-29T08:56:46;11.00;;;9.57;;
6017;SDS011;3037;51.068;13.780;2023-01-29T08:59:11;12.13;;;8.90;;
6017;SDS011;3037;51.068;13.780;2023-01-29T09:01:37;9.07;;;8.17;;
6017;SDS011;3037;51.068;13.780;2023-01-29T09:04:03;12.70;;;8.60;;
6017;SDS011;3037;51.068;13.780;2023-01-29T09:06:28;15.33;;;10.37;;
6017;SDS011;3037;51.068;13.780;2023-01-29T09:08:54;11.20;;;9.07;;
6017;SDS011;3037;51.068;13.780;2023-01-29T09:11:19;12.70;;;9.00;;
6017;SDS011;3037;51.068;13.780;2023-01-29T09:13:45;11.67;;;9.50;;
6017;SDS011;3037;51.068;13.780;2023-01-29T09:16:10;11.20;;;8.83;;
6017;SDS011;3037;51.068;13.780;2023-01-29T09:18:36;10.80;;;8.80;;
6017;SDS011;3037;51.068;13.780;2023-01-29T09:21:01;21.40;;;10.17;;
6017;SDS011;3037;51.068;13.780;2023-01-29T09:23:28;10.47;;;9.00;;
6017;SDS011;3037;51.068;13.780;2023-01-29T09:25:54;11.40;;;8.77;;
6017;SDS011;3037;51.068;13.780;2023-01-29T09:28:20;21.53;;;10.70;;
6017;SDS011;3037;51.068;13.780;2023-01-29T09:30:45;11.20;;;9.30;;
6017;SDS011;3037;51.068;13.780;2023-01-29T09:33:11;18.03;;;10.23;;
6017;SDS011;3037;51.068;13.780;2023-01-29T09:35:38;16.77;;;9.80;;
6017;SDS011;3037;51.068;13.780;2023-01-29T09:38:05;11.87;;;8.50;;
6017;SDS011;3037;51.068;13.780;2023-01-29T09:40:42;11.60;;;8.97;;
6017;SDS011;3037;51.068;13.780;2023-01-29T09:43:33;13.97;;;8.90;;
6017;SDS011;3037;51.068;13.780;2023-01-29T09:46:14;15.67;;;9.77;;
6017;SDS011;3037;51.068;13.780;2023-01-29T09:48:44;16.80;;;10.80;;
6017;SDS011;3037;51.068;13.780;2023-01-29T09:51:15;14.33;;;9.80;;
6017;SDS011;3037;51.068;13.780;2023-01-29T09:54:08;13.87;;;10.03;;
6017;SDS011;3037;51.068;13.780;2023-01-29T09:56:36;12.43;;;9.13;;
6017;SDS011;3037;51.068;13.780;2023-01-29T09:59:02;13.90;;;9.50;;
6017;SDS011;3037;51.068;13.780;2023-01-29T10:01:32;13.40;;;8.93;;
6017;SDS011;3037;51.068;13.780;2023-01-29T10:04:17;17.33;;;10.10;;
6017;SDS011;3037;51.068;13.780;2023-01-29T10:09:58;14.40;;;9.40;;
6017;SDS011;3037;51.068;13.780;2023-01-29T10:12:59;11.40;;;9.37;;
6017;SDS011;3037;51.068;13.780;2023-01-29T10:24:17;10.07;;;8.90;;
6017;SDS011;3037;51.068;13.780;2023-01-29T10:26:46;15.27;;;9.73;;
6017;SDS011;3037;51.068;13.780;2023-01-29T10:29:14;11.87;;;9.47;;
6017;SDS011;3037;51.068;13.780;2023-01-29T10:31:42;10.97;;;9.50;;
6017;SDS011;3037;51.068;13.780;2023-01-29T10:34:11;11.10;;;9.93;;
6017;SDS011;3037;51.068;13.780;2023-01-29T10:36:46;17.93;;;9.50;;
6017;SDS011;3037;51.068;13.780;2023-01-29T10:39:20;11.53;;;9.03;;
6017;SDS011;3037;51.068;13.780;2023-01-29T10:50:16;11.83;;;10.30;;
6017;SDS011;3037;51.068;13.780;2023-01-29T10:52:59;14.57;;;10.70;;
6017;SDS011;3037;51.068;13.780;2023-01-29T11:00:46;14.33;;;10.80;;
6017;SDS011;3037;51.068;13.780;2023-01-29T11:03:21;13.80;;;10.20;;
6017;SDS011;3037;51.068;13.780;2023-01-29T11:08:28;12.27;;;9.37;;
6017;SDS011;3037;51.068;13.780;2023-01-29T11:11:15;13.60;;;10.00;;
6017;SDS011;3037;51.068;13.780;2023-01-29T11:13:51;14.07;;;10.70;;
6017;SDS011;3037;51.068;13.780;2023-01-29T11:16:22;13.70;;;9.03;;
6017;SDS011;3037;51.068;13.780;2023-01-29T11:21:21;11.57;;;9.50;;
6017;SDS011;3037;51.068;13.780;2023-01-29T11:23:48;17.53;;;11.03;;
6017;SDS011;3037;51.068;13.780;2023-01-29T11:26:16;11.70;;;10.00;;
6017;SDS011;3037;51.068;13.780;2023-01-29T11:28:45;14.10;;;9.90;;
6017;SDS011;3037;51.068;13.780;2023-01-29T11:33:51;9.83;;;8.63;;
6017;SDS011;3037;51.068;13.780;2023-01-29T11:36:27;16.43;;;9.50;;
6017;SDS011;3037;51.068;13.780;2023-01-29T11:39:16;14.57;;;9.40;;
6017;SDS011;3037;51.068;13.780;2023-01-29T11:44:18;13.60;;;9.27;;
6017;SDS011;3037;51.068;13.780;2023-01-29T11:46:45;11.73;;;8.83;;
6017;SDS011;3037;51.068;13.780;2023-01-29T11:49:22;19.67;;;9.13;;
6017;SDS011;3037;51.068;13.780;2023-01-29T11:51:58;11.60;;;9.67;;
6017;SDS011;3037;51.068;13.780;2023-01-29T11:54:27;11.70;;;9.43;;
6017;SDS011;3037;51.068;13.780;2023-01-29T11:59:55;11.70;;;9.80;;
6017;SDS011;3037;51.068;13.780;2023-01-29T12:02:29;13.10;;;10.47;;
6017;SDS011;3037;51.068;13.780;2023-01-29T12:05:01;12.07;;;8.87;;
6017;SDS011;3037;51.068;13.780;2023-01-29T12:07:29;11.40;;;10.03;;
6017;SDS011;3037;51.068;13.780;2023-01-29T12:09:57;15.53;;;10.17;;
6017;SDS011;3037;51.068;13.780;2023-01-29T12:15:16;20.33;;;9.87;;
6017;SDS011;3037;51.068;13.780;2023-01-29T12:17:48;12.83;;;10.67;;
6017;SDS011;3037;51.068;13.780;2023-01-29T12:20:24;12.00;;;10.13;;
6017;SDS011;3037;51.068;13.780;2023-01-29T12:23:05;15.93;;;10.33;;
6017;SDS011;3037;51.068;13.780;2023-01-29T12:26:13;15.53;;;9.67;;
6017;SDS011;3037;51.068;13.780;2023-01-29T12:28:50;14.87;;;10.83;;
6017;SDS011;3037;51.068;13.780;2023-01-29T12:31:45;14.27;;;9.60;;
6017;SDS011;3037;51.068;13.780;2023-01-29T12:34:36;22.80;;;10.93;;
6017;SDS011;3037;51.068;13.780;2023-01-29T12:37:25;13.43;;;10.20;;
6017;SDS011;3037;51.068;13.780;2023-01-29T12:40:01;12.90;;;9.83;;
6017;SDS011;3037;51.068;13.780;2023-01-29T12:42:26;12.97;;;9.20;;
6017;SDS011;3037;51.068;13.780;2023-01-29T12:44:53;13.80;;;9.63;;
6017;SDS011;3037;51.068;13.780;2023-01-29T12:47:30;13.63;;;10.37;;
6017;SDS011;3037;51.068;13.780;2023-01-29T12:50:17;13.20;;;9.40;;
6017;SDS011;3037;51.068;13.780;2023-01-29T12:52:48;10.97;;;9.20;;
6017;SDS011;3037;51.068;13.780;2023-01-29T12:55:21;11.83;;;9.00;;
6017;SDS011;3037;51.068;13.780;2023-01-29T12:57:57;14.87;;;10.40;;
6017;SDS011;3037;51.068;13.780;2023-01-29T13:03:06;13.60;;;10.10;;
6017;SDS011;3037;51.068;13.780;2023-01-29T13:06:04;13.40;;;9.60;;
6017;SDS011;3037;51.068;13.780;2023-01-29T13:08:51;12.83;;;9.40;;
6017;SDS011;3037;51.068;13.780;2023-01-29T13:14:17;14.67;;;10.53;;
6017;SDS011;3037;51.068;13.780;2023-01-29T13:16:47;11.50;;;8.80;;
6017;SDS011;3037;51.068;13.780;2023-01-29T13:19:19;17.00;;;9.03;;
6017;SDS011;3037;51.068;13.780;2023-01-29T13:21:52;12.33;;;9.10;;
6017;SDS011;3037;51.068;13.780;2023-01-29T13:24:21;13.80;;;9.27;;
6017;SDS011;3037;51.068;13.780;2023-01-29T13:26:48;15.57;;;10.30;;
6017;SDS011;3037;51.068;13.780;2023-01-29T13:29:19;13.07;;;8.90;;
6017;SDS011;3037;51.068;13.780;2023-01-29T13:31:49;14.10;;;10.97;;
6017;SDS011;3037;51.068;13.780;2023-01-29T13:34:22;15.90;;;8.93;;
6017;SDS011;3037;51.068;13.780;2023-01-29T13:36:56;12.80;;;9.70;;
6017;SDS011;3037;51.068;13.780;2023-01-29T13:39:28;11.43;;;9.80;;
6017;SDS011;3037;51.068;13.780;2023-01-29T13:41:56;14.50;;;10.47;;
6017;SDS011;3037;51.068;13.780;2023-01-29T13:44:33;11.80;;;9.80;;
6017;SDS011;3037;51.068;13.780;2023-01-29T13:47:03;14.20;;;10.13;;
6017;SDS011;3037;51.068;13.780;2023-01-29T13:49:34;11.70;;;8.90;;
6017;SDS011;3037;51.068;13.780;2023-01-29T13:55:06;13.03;;;9.40;;
6017;SDS011;3037;51.068;13.780;2023-01-29T14:00:46;10.40;;;9.30;;
6017;SDS011;3037;51.068;13.780;2023-01-29T14:10:23;15.67;;;10.40;;
6017;SDS011;3037;51.068;13.780;2023-01-29T14:12:50;11.53;;;9.33;;
6017;SDS011;3037;51.068;13.780;2023-01-29T14:15:17;15.73;;;10.33;;
6017;SDS011;3037;51.068;13.780;2023-01-29T14:20:36;11.10;;;9.50;;
6017;SDS011;3037;51.068;13.780;2023-01-29T14:23:05;15.80;;;10.73;;
6017;SDS011;3037;51.068;13.780;2023-01-29T14:25:44;13.40;;;9.87;;
6017;SDS011;3037;51.068;13.780;2023-01-29T14:28:20;11.00;;;9.00;;
6017;SDS011;3037;51.068;13.780;2023-01-29T14:30:49;11.87;;;10.10;;
6017;SDS011;3037;51.068;13.780;2023-01-29T14:33:32;12.80;;;9.40;;
6017;SDS011;3037;51.068;13.780;2023-01-29T14:36:02;11.37;;;9.37;;
6017;SDS011;3037;51.068;13.780;2023-01-29T14:38:39;14.23;;;9.60;;
6017;SDS011;3037;51.068;13.780;2023-01-29T14:43:50;21.60;;;9.43;;
6017;SDS011;3037;51.068;13.780;2023-01-29T14:49:37;13.80;;;10.20;;
6017;SDS011;3037;51.068;13.780;2023-01-29T14:52:14;16.27;;;10.00;;
6017;SDS011;3037;51.068;13.780;2023-01-29T14:54:42;13.23;;;9.53;;
6017;SDS011;3037;51.068;13.780;2023-01-29T14:57:11;17.33;;;9.40;;
6017;SDS011;3037;51.068;13.780;2023-01-29T14:59:45;14.37;;;10.00;;
6017;SDS011;3037;51.068;13.780;2023-01-29T15:02:21;18.60;;;11.40;;
6017;SDS011;3037;51.068;13.780;2023-01-29T15:04:55;15.00;;;10.00;;
6017;SDS011;3037;51.068;13.780;2023-01-29T15:07:31;15.87;;;10.57;;
6017;SDS011;3037;51.068;13.780;2023-01-29T15:10:05;15.83;;;9.97;;
6017;SDS011;3037;51.068;13.780;2023-01-29T15:12:46;19.07;;;9.30;;
6017;SDS011;3037;51.068;13.780;2023-01-29T15:18:14;15.60;;;9.80;;
6017;SDS011;3037;51.068;13.780;2023-01-29T15:20:44;12.97;;;9.93;;
6017;SDS011;3037;51.068;13.780;2023-01-29T15:23:29;17.87;;;10.33;;
6017;SDS011;3037;51.068;13.780;2023-01-29T15:25:59;13.67;;;9.97;;
6017;SDS011;3037;51.068;13.780;2023-01-29T15:28:30;13.70;;;10.63;;
6017;SDS011;3037;51.068;13.780;2023-01-29T15:30:58;17.53;;;10.57;;
6017;SDS011;3037;51.068;13.780;2023-01-29T15:33:28;14.53;;;9.80;;
6017;SDS011;3037;51.068;13.780;2023-01-29T15:35:56;13.07;;;10.00;;
6017;SDS011;3037;51.068;13.780;2023-01-29T15:38:24;10.03;;;7.87;;
6017;SDS011;3037;51.068;13.780;2023-01-29T15:41:00;25.90;;;9.07;;
6017;SDS011;3037;51.068;13.780;2023-01-29T15:43:28;15.60;;;10.50;;
6017;SDS011;3037;51.068;13.780;2023-01-29T15:45:56;15.93;;;9.00;;
6017;SDS011;3037;51.068;13.780;2023-01-29T15:48:39;12.07;;;9.93;;
6017;SDS011;3037;51.068;13.780;2023-01-29T15:51:07;20.13;;;9.07;;
6017;SDS011;3037;51.068;13.780;2023-01-29T15:53:42;10.60;;;9.03;;
6017;SDS011;3037;51.068;13.780;2023-01-29T15:56:13;24.63;;;9.87;;
6017;SDS011;3037;51.068;13.780;2023-01-29T15:58:42;12.47;;;7.30;;
6017;SDS011;3037;51.068;13.780;2023-01-29T16:01:12;17.13;;;9.90;;
6017;SDS011;3037;51.068;13.780;2023-01-29T16:03:38;12.27;;;9.17;;
6017;SDS011;3037;51.068;13.780;2023-01-29T16:06:04;14.17;;;8.73;;
6017;SDS011;3037;51.068;13.780;2023-01-29T16:08:31;15.10;;;10.10;;
6017;SDS011;3037;51.068;13.780;2023-01-29T16:10:59;10.73;;;8.47;;
6017;SDS011;3037;51.068;13.780;2023-01-29T16:13:27;11.20;;;8.50;;
6017;SDS011;3037;51.068;13.780;2023-01-29T16:15:56;12.03;;;9.13;;
6017;SDS011;3037;51.068;13.780;2023-01-29T16:18:24;13.80;;;9.57;;
6017;SDS011;3037;51.068;13.780;2023-01-29T16:20:54;12.50;;;9.23;;
6017;SDS011;3037;51.068;13.780;2023-01-29T16:23:25;11.37;;;9.07;;
6017;SDS011;3037;51.068;13.780;2023-01-29T16:25:54;9.73;;;8.27;;
6017;SDS011;3037;51.068;13.780;2023-01-29T16:28:25;12.30;;;9.10;;
6017;SDS011;3037;51.068;13.780;2023-01-29T16:30:57;10.33;;;8.03;;
6017;SDS011;3037;51.068;13.780;2023-01-29T16:33:31;14.50;;;9.93;;
6017;SDS011;3037;51.068;13.780;2023-01-29T16:36:00;13.73;;;9.27;;
6017;SDS011;3037;51.068;13.780;2023-01-29T16:38:30;13.73;;;9.67;;
6017;SDS011;3037;51.068;13.780;2023-01-29T16:41:13;14.87;;;8.93;;
6017;SDS011;3037;51.068;13.780;2023-01-29T16:43:44;11.20;;;8.70;;
6017;SDS011;3037;51.068;13.780;2023-01-29T16:48:56;11.70;;;8.80;;
6017;SDS011;3037;51.068;13.780;2023-01-29T16:51:37;13.10;;;9.20;;